Aviation Digital Data Service (ADDS)

Output produced by METARs form (0421 UTC 25 July 2016)
found at http://aviationweather.gov/adds/metars/
 
KGSP 242328Z 2500/2524 21005KT P6SM FEW070 SCT250 
     FM250200 22003KT P6SM FEW250 
     FM251600 20007KT P6SM SCT060